CSN3277 ZGGG-ZUCK
Flight info
| Callsign | CSN3277 |
|---|---|
| Flight time | N/A |
| Altitude | 32100 |
| Route | AGVIL W24 OSNOV G586 QP B330 ELKAL W179 SUMUN W3 ASIPO W678 SEGDA |
| Aircraft | A320/M-SDE3GHIJ2J3J5M1RVWXYZ/LB2D1 |
Departure
| Time | 2026-04-28 05:34 |
|---|---|
| Airport | Guangzhou Baiyun International Airport (ZGGG) |
Arrival
| Time | N/A |
|---|---|
| Airport | Chongqing Jiangbei International Airport (ZUCK) |
| Time | Latitude | Longitude | Altitude | Speed | Heading |
|---|---|---|---|---|---|
| 2026-04-28 04:41 | 23.40095 | 113.32018 | 39 ft | 0 kts | 284° |
| 2026-04-28 05:17 | 23.40093 | 113.32027 | 39 ft | 2 kts | 283° |
| 2026-04-28 05:17 | 23.40090 | 113.32042 | 39 ft | 2 kts | 283° |
| 2026-04-28 05:17 | 23.40085 | 113.32063 | 39 ft | 2 kts | 283° |
| 2026-04-28 05:18 | 23.40083 | 113.32072 | 39 ft | 2 kts | 283° |
| 2026-04-28 05:18 | 23.40079 | 113.32089 | 39 ft | 2 kts | 284° |
| 2026-04-28 05:18 | 23.40075 | 113.32103 | 39 ft | 2 kts | 313° |
| 2026-04-28 05:18 | 23.40061 | 113.32111 | 39 ft | 2 kts | 358° |
| 2026-04-28 05:19 | 23.40054 | 113.32110 | 39 ft | 1 kts | 21° |
| 2026-04-28 05:19 | 23.40050 | 113.32108 | 39 ft | 0 kts | 14° |
| 2026-04-28 05:21 | 23.40076 | 113.32115 | 39 ft | 6 kts | 13° |
| 2026-04-28 05:22 | 23.40132 | 113.32130 | 40 ft | 10 kts | 13° |
| 2026-04-28 05:22 | 23.40199 | 113.32147 | 41 ft | 9 kts | 14° |
| 2026-04-28 05:22 | 23.40319 | 113.32181 | 44 ft | 16 kts | 14° |
| 2026-04-28 05:22 | 23.40393 | 113.32200 | 45 ft | 16 kts | 13° |
| 2026-04-28 05:23 | 23.40504 | 113.32231 | 47 ft | 15 kts | 14° |
| 2026-04-28 05:23 | 23.40608 | 113.32259 | 48 ft | 13 kts | 14° |
| 2026-04-28 05:23 | 23.40675 | 113.32261 | 48 ft | 12 kts | 331° |
| 2026-04-28 05:23 | 23.40714 | 113.32156 | 51 ft | 12 kts | 283° |
| 2026-04-28 05:24 | 23.40735 | 113.32063 | 52 ft | 12 kts | 284° |
| 2026-04-28 05:24 | 23.40762 | 113.31950 | 55 ft | 19 kts | 284° |
| 2026-04-28 05:24 | 23.40794 | 113.31808 | 57 ft | 18 kts | 283° |
| 2026-04-28 05:24 | 23.40834 | 113.31640 | 63 ft | 16 kts | 284° |
| 2026-04-28 05:25 | 23.40850 | 113.31567 | 62 ft | 11 kts | 283° |
| 2026-04-28 05:25 | 23.40868 | 113.31485 | 62 ft | 11 kts | 283° |
| 2026-04-28 05:25 | 23.40891 | 113.31391 | 60 ft | 13 kts | 284° |
| 2026-04-28 05:25 | 23.40913 | 113.31293 | 59 ft | 13 kts | 283° |
| 2026-04-28 05:26 | 23.40937 | 113.31191 | 59 ft | 14 kts | 283° |
| 2026-04-28 05:26 | 23.40926 | 113.31138 | 59 ft | 6 kts | 190° |
| 2026-04-28 05:26 | 23.40886 | 113.31130 | 61 ft | 6 kts | 192° |
| 2026-04-28 05:26 | 23.40819 | 113.31113 | 62 ft | 14 kts | 193° |
| 2026-04-28 05:27 | 23.40696 | 113.31078 | 65 ft | 21 kts | 194° |
| 2026-04-28 05:27 | 23.40527 | 113.31030 | 66 ft | 28 kts | 195° |
| 2026-04-28 05:27 | 23.40416 | 113.31003 | 64 ft | 9 kts | 192° |
| 2026-04-28 05:27 | 23.40351 | 113.30973 | 62 ft | 7 kts | 234° |
| 2026-04-28 05:28 | 23.40353 | 113.30910 | 59 ft | 10 kts | 286° |
| 2026-04-28 05:28 | 23.40377 | 113.30817 | 56 ft | 14 kts | 285° |
| 2026-04-28 05:28 | 23.40415 | 113.30649 | 49 ft | 19 kts | 284° |
| 2026-04-28 05:28 | 23.40438 | 113.30550 | 45 ft | 21 kts | 283° |
| 2026-04-28 05:29 | 23.40473 | 113.30389 | 41 ft | 22 kts | 283° |
| 2026-04-28 05:29 | 23.40511 | 113.30218 | 40 ft | 22 kts | 285° |
| 2026-04-28 05:29 | 23.40550 | 113.30055 | 40 ft | 21 kts | 283° |
| 2026-04-28 05:29 | 23.40587 | 113.29897 | 40 ft | 21 kts | 284° |
| 2026-04-28 05:30 | 23.40619 | 113.29745 | 42 ft | 20 kts | 284° |
| 2026-04-28 05:30 | 23.40663 | 113.29559 | 43 ft | 18 kts | 282° |
| 2026-04-28 05:30 | 23.40679 | 113.29483 | 43 ft | 13 kts | 284° |
| 2026-04-28 05:30 | 23.40702 | 113.29391 | 42 ft | 8 kts | 290° |
| 2026-04-28 05:31 | 23.40744 | 113.29366 | 43 ft | 6 kts | 13° |
| 2026-04-28 05:31 | 23.40781 | 113.29372 | 45 ft | 4 kts | 351° |
| 2026-04-28 05:31 | 23.40800 | 113.29353 | 45 ft | 4 kts | 290° |
| 2026-04-28 05:31 | 23.40810 | 113.29318 | 45 ft | 6 kts | 286° |
| 2026-04-28 05:32 | 23.40826 | 113.29255 | 43 ft | 10 kts | 283° |
| 2026-04-28 05:32 | 23.40812 | 113.29193 | 41 ft | 10 kts | 219° |
| 2026-04-28 05:32 | 23.40785 | 113.29182 | 40 ft | 0 kts | 191° |
| 2026-04-28 05:32 | 23.40779 | 113.29181 | 40 ft | 2 kts | 191° |
| 2026-04-28 05:33 | 23.40635 | 113.29144 | 37 ft | 55 kts | 193° |
| 2026-04-28 05:33 | 23.40038 | 113.28984 | 38 ft | 119 kts | 193° |
| 2026-04-28 05:33 | 23.39078 | 113.28723 | 35 ft | 170 kts | 194° |
| 2026-04-28 05:33 | 23.37826 | 113.28365 | 358 ft | 188 kts | 195° |
| 2026-04-28 05:34 | 23.36647 | 113.27763 | 952 ft | 194 kts | 210° |
| 2026-04-28 05:34 | 23.35594 | 113.26923 | 1790 ft | 187 kts | 216° |
| 2026-04-28 05:34 | 23.34758 | 113.26005 | 2570 ft | 176 kts | 226° |
| 2026-04-28 05:34 | 23.34071 | 113.24963 | 3292 ft | 167 kts | 233° |
| 2026-04-28 05:35 | 23.33587 | 113.23297 | 3799 ft | 194 kts | 277° |
| 2026-04-28 05:35 | 23.34326 | 113.22041 | 4165 ft | 214 kts | 323° |
| 2026-04-28 05:35 | 23.35248 | 113.21588 | 4441 ft | 224 kts | 342° |
| 2026-04-28 05:35 | 23.37365 | 113.21024 | 4937 ft | 247 kts | 345° |
| 2026-04-28 05:36 | 23.38514 | 113.20686 | 5111 ft | 263 kts | 342° |
| 2026-04-28 05:36 | 23.40344 | 113.20049 | 5557 ft | 281 kts | 339° |
| 2026-04-28 05:36 | 23.42223 | 113.19300 | 6091 ft | 295 kts | 337° |
| 2026-04-28 05:36 | 23.44143 | 113.18478 | 6885 ft | 298 kts | 335° |
| 2026-04-28 05:37 | 23.46044 | 113.17638 | 7762 ft | 298 kts | 334° |
| 2026-04-28 05:37 | 23.47748 | 113.16872 | 8523 ft | 298 kts | 334° |
| 2026-04-28 05:37 | 23.48770 | 113.16408 | 8968 ft | 298 kts | 334° |
| 2026-04-28 05:38 | 23.53735 | 113.14130 | 10699 ft | 314 kts | 333° |
| 2026-04-28 05:38 | 23.55987 | 113.13086 | 11050 ft | 334 kts | 333° |
| 2026-04-28 05:38 | 23.58188 | 113.12068 | 11346 ft | 351 kts | 333° |
| 2026-04-28 05:38 | 23.60499 | 113.11002 | 11669 ft | 367 kts | 333° |
| 2026-04-28 05:39 | 23.62901 | 113.09897 | 12262 ft | 374 kts | 333° |
| 2026-04-28 05:39 | 23.65293 | 113.08798 | 12947 ft | 376 kts | 333° |
| 2026-04-28 05:39 | 23.67724 | 113.07680 | 13630 ft | 379 kts | 333° |
| 2026-04-28 05:39 | 23.70160 | 113.06555 | 14247 ft | 382 kts | 333° |
| 2026-04-28 05:40 | 23.72643 | 113.05405 | 14831 ft | 386 kts | 333° |
| 2026-04-28 05:40 | 23.75123 | 113.04257 | 15427 ft | 389 kts | 334° |
| 2026-04-28 05:40 | 23.77601 | 113.03110 | 15981 ft | 392 kts | 333° |
| 2026-04-28 05:40 | 23.80128 | 113.01939 | 16530 ft | 396 kts | 334° |
| 2026-04-28 05:41 | 23.82688 | 113.00752 | 17059 ft | 399 kts | 334° |
| 2026-04-28 05:41 | 23.85249 | 112.99566 | 17559 ft | 403 kts | 334° |
| 2026-04-28 05:41 | 23.87870 | 112.98354 | 18059 ft | 407 kts | 334° |
| 2026-04-28 05:41 | 23.90467 | 112.97150 | 18548 ft | 410 kts | 334° |
| 2026-04-28 05:42 | 23.93120 | 112.95921 | 19032 ft | 413 kts | 334° |
| 2026-04-28 05:42 | 23.95756 | 112.94698 | 19519 ft | 416 kts | 334° |
| 2026-04-28 05:42 | 23.98443 | 112.93448 | 19987 ft | 419 kts | 334° |
| 2026-04-28 05:42 | 24.01114 | 112.92206 | 20445 ft | 422 kts | 334° |
| 2026-04-28 05:43 | 24.03856 | 112.90929 | 20908 ft | 424 kts | 334° |
| 2026-04-28 05:43 | 24.06576 | 112.89661 | 21356 ft | 427 kts | 334° |
| 2026-04-28 05:43 | 24.09320 | 112.88383 | 21789 ft | 430 kts | 334° |
| 2026-04-28 05:43 | 24.12079 | 112.87103 | 22213 ft | 432 kts | 334° |
| 2026-04-28 05:44 | 24.14904 | 112.85860 | 22619 ft | 436 kts | 336° |
| 2026-04-28 05:44 | 24.17798 | 112.84786 | 23026 ft | 440 kts | 340° |
| 2026-04-28 05:44 | 24.20694 | 112.83813 | 23438 ft | 443 kts | 340° |
| 2026-04-28 05:44 | 24.23663 | 112.82832 | 23834 ft | 445 kts | 340° |
| 2026-04-28 05:45 | 24.26670 | 112.81838 | 24224 ft | 448 kts | 340° |
| 2026-04-28 05:45 | 24.29680 | 112.80839 | 24618 ft | 450 kts | 340° |
| 2026-04-28 05:45 | 24.32660 | 112.79845 | 24996 ft | 452 kts | 340° |
| 2026-04-28 05:45 | 24.35682 | 112.78835 | 25362 ft | 455 kts | 340° |
| 2026-04-28 05:46 | 24.38706 | 112.77823 | 25710 ft | 457 kts | 340° |
| 2026-04-28 05:46 | 24.41777 | 112.76798 | 26074 ft | 459 kts | 340° |
| 2026-04-28 05:46 | 24.44702 | 112.75491 | 26383 ft | 456 kts | 327° |
| 2026-04-28 05:46 | 24.47136 | 112.73322 | 26734 ft | 451 kts | 309° |
| 2026-04-28 05:47 | 24.48890 | 112.70463 | 27073 ft | 448 kts | 293° |
| 2026-04-28 05:47 | 24.49809 | 112.67233 | 27359 ft | 446 kts | 277° |
| 2026-04-28 05:47 | 24.50151 | 112.63882 | 27653 ft | 447 kts | 275° |
| 2026-04-28 05:47 | 24.50466 | 112.60432 | 27858 ft | 452 kts | 275° |
| 2026-04-28 05:48 | 24.50782 | 112.57015 | 28105 ft | 455 kts | 275° |
| 2026-04-28 05:48 | 24.51108 | 112.53550 | 28458 ft | 455 kts | 275° |
| 2026-04-28 05:48 | 24.51432 | 112.50145 | 28840 ft | 454 kts | 275° |
| 2026-04-28 05:48 | 24.51762 | 112.46697 | 29235 ft | 453 kts | 275° |
| 2026-04-28 05:49 | 24.52092 | 112.43262 | 29637 ft | 451 kts | 275° |
| 2026-04-28 05:49 | 24.52416 | 112.39885 | 30061 ft | 449 kts | 275° |
| 2026-04-28 05:49 | 24.52743 | 112.36472 | 30471 ft | 448 kts | 275° |
| 2026-04-28 05:49 | 24.53066 | 112.33109 | 30885 ft | 446 kts | 275° |
| 2026-04-28 05:50 | 24.53389 | 112.29714 | 31310 ft | 444 kts | 275° |
| 2026-04-28 05:50 | 24.53705 | 112.26392 | 31713 ft | 441 kts | 275° |
| 2026-04-28 05:50 | 24.54023 | 112.23049 | 32110 ft | 439 kts | 275° |
| 2026-04-28 05:50 | 24.54340 | 112.19705 | 32474 ft | 438 kts | 275° |
| 2026-04-28 05:51 | 24.54656 | 112.16378 | 32758 ft | 438 kts | 275° |
| 2026-04-28 05:51 | 24.54967 | 112.13075 | 33030 ft | 439 kts | 275° |
| 2026-04-28 05:51 | 24.55282 | 112.09740 | 33289 ft | 439 kts | 275° |
| 2026-04-28 05:51 | 24.55599 | 112.06382 | 33539 ft | 440 kts | 275° |
| 2026-04-28 05:52 | 24.55911 | 112.03056 | 33774 ft | 441 kts | 275° |
| 2026-04-28 05:52 | 24.56226 | 111.99699 | 33988 ft | 442 kts | 275° |
| 2026-04-28 05:52 | 24.56850 | 111.92996 | 34016 ft | 443 kts | 275° |
| 2026-04-28 05:53 | 24.57472 | 111.86305 | 34012 ft | 444 kts | 275° |
| 2026-04-28 05:53 | 24.58096 | 111.79554 | 34004 ft | 443 kts | 275° |
| 2026-04-28 05:54 | 24.58712 | 111.72863 | 33994 ft | 444 kts | 275° |
| 2026-04-28 05:54 | 24.59328 | 111.66128 | 33981 ft | 443 kts | 275° |
| 2026-04-28 05:55 | 24.59937 | 111.59401 | 33969 ft | 443 kts | 275° |
| 2026-04-28 05:55 | 24.60545 | 111.52672 | 33954 ft | 444 kts | 275° |
| 2026-04-28 05:56 | 24.61151 | 111.45933 | 33945 ft | 444 kts | 275° |
| 2026-04-28 05:56 | 24.61749 | 111.39223 | 33945 ft | 444 kts | 275° |
| 2026-04-28 05:57 | 24.62346 | 111.32494 | 33944 ft | 444 kts | 275° |
| 2026-04-28 05:57 | 24.62943 | 111.25731 | 33941 ft | 445 kts | 275° |
| 2026-04-28 05:58 | 24.63532 | 111.18967 | 33940 ft | 446 kts | 275° |
| 2026-04-28 05:58 | 24.64117 | 111.12180 | 33939 ft | 446 kts | 275° |
| 2026-04-28 05:59 | 24.64694 | 111.05406 | 33944 ft | 446 kts | 275° |
| 2026-04-28 05:59 | 24.65268 | 110.98628 | 33945 ft | 445 kts | 275° |
| 2026-04-28 06:00 | 24.65835 | 110.91898 | 33945 ft | 445 kts | 275° |
| 2026-04-28 06:00 | 24.66664 | 110.85182 | 33933 ft | 446 kts | 283° |
| 2026-04-28 06:01 | 24.68724 | 110.78770 | 33930 ft | 448 kts | 295° |
| 2026-04-28 06:01 | 24.72024 | 110.72940 | 33922 ft | 451 kts | 307° |
| 2026-04-28 06:02 | 24.76334 | 110.67933 | 33918 ft | 453 kts | 314° |
| 2026-04-28 06:02 | 24.80547 | 110.63507 | 33922 ft | 455 kts | 314° |